sensor_id;sensor_type;location;lat;lon;timestamp;P1;durP1;ratioP1;P2;durP2;ratioP2
17955;SDS011;27666;51.498;11.966;2023-04-15T00:02:34;7.77;;;5.83;;
17955;SDS011;27666;51.498;11.966;2023-04-15T00:05:21;7.17;;;6.10;;
17955;SDS011;27666;51.498;11.966;2023-04-15T00:08:08;8.80;;;5.80;;
17955;SDS011;27666;51.498;11.966;2023-04-15T00:10:54;7.57;;;6.37;;
17955;SDS011;27666;51.498;11.966;2023-04-15T00:13:44;7.83;;;5.90;;
17955;SDS011;27666;51.498;11.966;2023-04-15T00:16:31;8.57;;;6.87;;
17955;SDS011;27666;51.498;11.966;2023-04-15T00:19:17;9.33;;;6.13;;
17955;SDS011;27666;51.498;11.966;2023-04-15T00:22:04;10.53;;;6.80;;
17955;SDS011;27666;51.498;11.966;2023-04-15T00:24:51;9.10;;;6.87;;
17955;SDS011;27666;51.498;11.966;2023-04-15T00:27:38;10.43;;;7.70;;
17955;SDS011;27666;51.498;11.966;2023-04-15T00:30:26;9.70;;;7.83;;
17955;SDS011;27666;51.498;11.966;2023-04-15T00:33:12;9.47;;;7.27;;
17955;SDS011;27666;51.498;11.966;2023-04-15T00:36:00;9.37;;;7.77;;
17955;SDS011;27666;51.498;11.966;2023-04-15T00:38:47;9.40;;;7.30;;
17955;SDS011;27666;51.498;11.966;2023-04-15T00:41:33;10.73;;;7.60;;
17955;SDS011;27666;51.498;11.966;2023-04-15T00:44:26;10.13;;;7.17;;
17955;SDS011;27666;51.498;11.966;2023-04-15T00:47:14;10.57;;;7.47;;
17955;SDS011;27666;51.498;11.966;2023-04-15T00:50:02;10.17;;;7.43;;
17955;SDS011;27666;51.498;11.966;2023-04-15T00:52:49;11.37;;;8.37;;
17955;SDS011;27666;51.498;11.966;2023-04-15T00:55:36;13.20;;;8.40;;
17955;SDS011;27666;51.498;11.966;2023-04-15T00:58:23;13.00;;;8.73;;
17955;SDS011;27666;51.498;11.966;2023-04-15T01:01:12;13.73;;;9.40;;
17955;SDS011;27666;51.498;11.966;2023-04-15T01:03:59;14.93;;;10.13;;
17955;SDS011;27666;51.498;11.966;2023-04-15T01:06:47;14.73;;;10.27;;
17955;SDS011;27666;51.498;11.966;2023-04-15T01:09:33;15.63;;;10.47;;
17955;SDS011;27666;51.498;11.966;2023-04-15T01:12:20;14.00;;;10.07;;
17955;SDS011;27666;51.498;11.966;2023-04-15T01:15:07;13.73;;;10.07;;
17955;SDS011;27666;51.498;11.966;2023-04-15T01:17:55;13.57;;;10.13;;
17955;SDS011;27666;51.498;11.966;2023-04-15T01:20:45;14.33;;;10.53;;
17955;SDS011;27666;51.498;11.966;2023-04-15T01:23:31;14.03;;;10.70;;
17955;SDS011;27666;51.498;11.966;2023-04-15T01:26:20;14.23;;;10.03;;
17955;SDS011;27666;51.498;11.966;2023-04-15T01:29:07;12.17;;;9.40;;
17955;SDS011;27666;51.498;11.966;2023-04-15T01:31:54;12.97;;;9.67;;
17955;SDS011;27666;51.498;11.966;2023-04-15T01:34:43;13.43;;;9.33;;
17955;SDS011;27666;51.498;11.966;2023-04-15T01:37:29;14.50;;;10.40;;
17955;SDS011;27666;51.498;11.966;2023-04-15T01:40:16;16.20;;;10.70;;
17955;SDS011;27666;51.498;11.966;2023-04-15T01:43:03;14.07;;;10.40;;
17955;SDS011;27666;51.498;11.966;2023-04-15T01:45:50;14.47;;;10.33;;
17955;SDS011;27666;51.498;11.966;2023-04-15T01:48:36;12.10;;;9.57;;
17955;SDS011;27666;51.498;11.966;2023-04-15T01:51:23;14.97;;;9.53;;
17955;SDS011;27666;51.498;11.966;2023-04-15T01:54:10;11.40;;;8.63;;
17955;SDS011;27666;51.498;11.966;2023-04-15T01:56:56;11.20;;;8.37;;
17955;SDS011;27666;51.498;11.966;2023-04-15T01:59:44;9.37;;;7.30;;
17955;SDS011;27666;51.498;11.966;2023-04-15T02:02:30;12.13;;;7.73;;
17955;SDS011;27666;51.498;11.966;2023-04-15T02:05:17;10.53;;;7.70;;
17955;SDS011;27666;51.498;11.966;2023-04-15T02:08:03;8.73;;;6.70;;
17955;SDS011;27666;51.498;11.966;2023-04-15T02:10:50;10.43;;;7.33;;
17955;SDS011;27666;51.498;11.966;2023-04-15T02:13:37;10.03;;;7.13;;
17955;SDS011;27666;51.498;11.966;2023-04-15T02:16:25;10.70;;;6.70;;
17955;SDS011;27666;51.498;11.966;2023-04-15T02:19:11;9.43;;;7.30;;
17955;SDS011;27666;51.498;11.966;2023-04-15T02:21:59;10.57;;;8.03;;
17955;SDS011;27666;51.498;11.966;2023-04-15T02:24:45;11.47;;;7.37;;
17955;SDS011;27666;51.498;11.966;2023-04-15T02:27:31;8.70;;;6.97;;
17955;SDS011;27666;51.498;11.966;2023-04-15T02:30:18;9.77;;;7.20;;
17955;SDS011;27666;51.498;11.966;2023-04-15T02:33:09;8.80;;;6.77;;
17955;SDS011;27666;51.498;11.966;2023-04-15T02:35:55;8.73;;;6.50;;
17955;SDS011;27666;51.498;11.966;2023-04-15T02:38:42;7.73;;;6.17;;
17955;SDS011;27666;51.498;11.966;2023-04-15T02:41:29;8.07;;;5.53;;
17955;SDS011;27666;51.498;11.966;2023-04-15T02:44:16;7.83;;;6.13;;
17955;SDS011;27666;51.498;11.966;2023-04-15T02:47:04;7.40;;;5.50;;
17955;SDS011;27666;51.498;11.966;2023-04-15T02:49:52;7.50;;;5.90;;
17955;SDS011;27666;51.498;11.966;2023-04-15T02:52:39;7.27;;;5.53;;
17955;SDS011;27666;51.498;11.966;2023-04-15T02:55:26;8.40;;;5.57;;
17955;SDS011;27666;51.498;11.966;2023-04-15T02:58:12;7.57;;;5.20;;
17955;SDS011;27666;51.498;11.966;2023-04-15T03:00:58;5.33;;;4.73;;
17955;SDS011;27666;51.498;11.966;2023-04-15T03:03:45;5.00;;;4.50;;
17955;SDS011;27666;51.498;11.966;2023-04-15T03:06:33;7.53;;;5.30;;
17955;SDS011;27666;51.498;11.966;2023-04-15T03:09:20;6.17;;;5.10;;
17955;SDS011;27666;51.498;11.966;2023-04-15T03:12:06;7.20;;;5.10;;
17955;SDS011;27666;51.498;11.966;2023-04-15T03:14:53;7.20;;;5.33;;
17955;SDS011;27666;51.498;11.966;2023-04-15T03:17:39;8.43;;;5.20;;
17955;SDS011;27666;51.498;11.966;2023-04-15T03:20:26;7.07;;;5.67;;
17955;SDS011;27666;51.498;11.966;2023-04-15T03:23:14;7.90;;;5.67;;
17955;SDS011;27666;51.498;11.966;2023-04-15T03:26:01;7.83;;;5.73;;
17955;SDS011;27666;51.498;11.966;2023-04-15T03:28:48;6.53;;;5.37;;
17955;SDS011;27666;51.498;11.966;2023-04-15T03:31:34;6.80;;;5.40;;
17955;SDS011;27666;51.498;11.966;2023-04-15T03:34:21;7.13;;;5.53;;
17955;SDS011;27666;51.498;11.966;2023-04-15T03:37:07;6.83;;;5.60;;
17955;SDS011;27666;51.498;11.966;2023-04-15T03:39:55;6.37;;;5.07;;
17955;SDS011;27666;51.498;11.966;2023-04-15T03:42:42;8.00;;;5.33;;
17955;SDS011;27666;51.498;11.966;2023-04-15T03:45:29;6.00;;;4.97;;
17955;SDS011;27666;51.498;11.966;2023-04-15T03:48:15;7.50;;;5.10;;
17955;SDS011;27666;51.498;11.966;2023-04-15T03:51:02;9.23;;;6.07;;
17955;SDS011;27666;51.498;11.966;2023-04-15T03:53:49;7.97;;;6.00;;
17955;SDS011;27666;51.498;11.966;2023-04-15T03:56:36;7.67;;;5.50;;
17955;SDS011;27666;51.498;11.966;2023-04-15T03:59:24;8.10;;;5.97;;
17955;SDS011;27666;51.498;11.966;2023-04-15T04:02:10;8.50;;;5.37;;
17955;SDS011;27666;51.498;11.966;2023-04-15T04:04:57;7.73;;;5.97;;
17955;SDS011;27666;51.498;11.966;2023-04-15T04:07:44;8.10;;;5.73;;
17955;SDS011;27666;51.498;11.966;2023-04-15T04:10:30;6.87;;;5.50;;
17955;SDS011;27666;51.498;11.966;2023-04-15T04:13:18;9.03;;;6.00;;
17955;SDS011;27666;51.498;11.966;2023-04-15T04:16:05;8.00;;;5.77;;
17955;SDS011;27666;51.498;11.966;2023-04-15T04:18:52;8.33;;;5.63;;
17955;SDS011;27666;51.498;11.966;2023-04-15T04:21:38;7.00;;;5.53;;
17955;SDS011;27666;51.498;11.966;2023-04-15T04:24:25;8.70;;;6.50;;
17955;SDS011;27666;51.498;11.966;2023-04-15T04:27:12;8.37;;;5.93;;
17955;SDS011;27666;51.498;11.966;2023-04-15T04:29:59;9.17;;;6.93;;
17955;SDS011;27666;51.498;11.966;2023-04-15T04:32:46;8.63;;;6.67;;
17955;SDS011;27666;51.498;11.966;2023-04-15T04:35:32;12.77;;;8.87;;
17955;SDS011;27666;51.498;11.966;2023-04-15T04:38:21;10.40;;;7.33;;
17955;SDS011;27666;51.498;11.966;2023-04-15T04:41:07;11.57;;;7.67;;
17955;SDS011;27666;51.498;11.966;2023-04-15T04:43:53;10.80;;;7.83;;
17955;SDS011;27666;51.498;11.966;2023-04-15T04:46:41;11.20;;;7.50;;
17955;SDS011;27666;51.498;11.966;2023-04-15T04:49:28;9.87;;;7.40;;
17955;SDS011;27666;51.498;11.966;2023-04-15T04:52:14;11.17;;;7.80;;
17955;SDS011;27666;51.498;11.966;2023-04-15T04:55:01;9.23;;;6.87;;
17955;SDS011;27666;51.498;11.966;2023-04-15T04:57:48;8.93;;;6.97;;
17955;SDS011;27666;51.498;11.966;2023-04-15T05:00:35;12.57;;;7.53;;
17955;SDS011;27666;51.498;11.966;2023-04-15T05:03:23;10.27;;;7.17;;
17955;SDS011;27666;51.498;11.966;2023-04-15T05:06:10;10.10;;;7.13;;
17955;SDS011;27666;51.498;11.966;2023-04-15T05:08:56;11.10;;;7.17;;
17955;SDS011;27666;51.498;11.966;2023-04-15T05:11:43;9.17;;;6.60;;
17955;SDS011;27666;51.498;11.966;2023-04-15T05:14:30;9.90;;;6.70;;
17955;SDS011;27666;51.498;11.966;2023-04-15T05:17:19;9.70;;;7.03;;
17955;SDS011;27666;51.498;11.966;2023-04-15T05:20:07;7.93;;;6.30;;
17955;SDS011;27666;51.498;11.966;2023-04-15T05:22:54;9.37;;;7.03;;
17955;SDS011;27666;51.498;11.966;2023-04-15T05:25:41;9.20;;;6.87;;
17955;SDS011;27666;51.498;11.966;2023-04-15T05:28:27;9.60;;;6.97;;
17955;SDS011;27666;51.498;11.966;2023-04-15T05:31:14;9.77;;;7.03;;
17955;SDS011;27666;51.498;11.966;2023-04-15T05:34:00;9.83;;;7.43;;
17955;SDS011;27666;51.498;11.966;2023-04-15T05:36:48;11.00;;;6.90;;
17955;SDS011;27666;51.498;11.966;2023-04-15T05:39:34;8.93;;;7.27;;
17955;SDS011;27666;51.498;11.966;2023-04-15T05:42:21;10.67;;;6.70;;
17955;SDS011;27666;51.498;11.966;2023-04-15T05:45:08;10.40;;;7.43;;
17955;SDS011;27666;51.498;11.966;2023-04-15T05:47:55;9.40;;;7.20;;
17955;SDS011;27666;51.498;11.966;2023-04-15T05:50:41;8.83;;;6.70;;
17955;SDS011;27666;51.498;11.966;2023-04-15T05:53:29;9.03;;;6.83;;
17955;SDS011;27666;51.498;11.966;2023-04-15T05:56:16;8.60;;;7.00;;
17955;SDS011;27666;51.498;11.966;2023-04-15T05:59:03;8.13;;;6.50;;
17955;SDS011;27666;51.498;11.966;2023-04-15T06:01:50;10.43;;;6.40;;
17955;SDS011;27666;51.498;11.966;2023-04-15T06:04:37;7.67;;;6.10;;
17955;SDS011;27666;51.498;11.966;2023-04-15T06:07:24;6.97;;;5.67;;
17955;SDS011;27666;51.498;11.966;2023-04-15T06:10:12;6.87;;;5.70;;
17955;SDS011;27666;51.498;11.966;2023-04-15T06:12:58;6.07;;;5.10;;
17955;SDS011;27666;51.498;11.966;2023-04-15T06:15:45;6.73;;;5.57;;
17955;SDS011;27666;51.498;11.966;2023-04-15T06:18:32;7.00;;;5.43;;
17955;SDS011;27666;51.498;11.966;2023-04-15T06:21:18;9.53;;;5.70;;
17955;SDS011;27666;51.498;11.966;2023-04-15T06:24:05;8.97;;;6.07;;
17955;SDS011;27666;51.498;11.966;2023-04-15T06:26:53;7.13;;;5.67;;
17955;SDS011;27666;51.498;11.966;2023-04-15T06:29:41;7.50;;;5.73;;
17955;SDS011;27666;51.498;11.966;2023-04-15T06:32:30;8.23;;;6.40;;
17955;SDS011;27666;51.498;11.966;2023-04-15T06:35:18;9.23;;;6.30;;
17955;SDS011;27666;51.498;11.966;2023-04-15T06:38:04;10.23;;;7.47;;
17955;SDS011;27666;51.498;11.966;2023-04-15T06:40:51;10.37;;;7.43;;
17955;SDS011;27666;51.498;11.966;2023-04-15T06:43:39;9.27;;;7.30;;
17955;SDS011;27666;51.498;11.966;2023-04-15T06:46:26;9.50;;;7.10;;
17955;SDS011;27666;51.498;11.966;2023-04-15T06:49:12;10.07;;;7.10;;
17955;SDS011;27666;51.498;11.966;2023-04-15T06:51:59;9.37;;;7.13;;
17955;SDS011;27666;51.498;11.966;2023-04-15T06:54:45;11.43;;;7.10;;
17955;SDS011;27666;51.498;11.966;2023-04-15T06:57:32;9.03;;;7.00;;
17955;SDS011;27666;51.498;11.966;2023-04-15T07:00:20;9.73;;;7.43;;
17955;SDS011;27666;51.498;11.966;2023-04-15T07:03:07;11.60;;;7.33;;
17955;SDS011;27666;51.498;11.966;2023-04-15T07:05:55;10.27;;;6.83;;
17955;SDS011;27666;51.498;11.966;2023-04-15T07:08:41;12.43;;;7.80;;
17955;SDS011;27666;51.498;11.966;2023-04-15T07:11:28;9.37;;;7.27;;
17955;SDS011;27666;51.498;11.966;2023-04-15T07:14:15;10.77;;;7.60;;
17955;SDS011;27666;51.498;11.966;2023-04-15T07:17:03;12.27;;;8.30;;
17955;SDS011;27666;51.498;11.966;2023-04-15T07:19:50;10.53;;;7.40;;
17955;SDS011;27666;51.498;11.966;2023-04-15T07:22:36;9.80;;;7.27;;
17955;SDS011;27666;51.498;11.966;2023-04-15T07:25:23;9.80;;;7.20;;
17955;SDS011;27666;51.498;11.966;2023-04-15T07:28:10;17.57;;;11.87;;
17955;SDS011;27666;51.498;11.966;2023-04-15T07:30:56;10.57;;;8.20;;
17955;SDS011;27666;51.498;11.966;2023-04-15T07:33:44;9.40;;;7.03;;
17955;SDS011;27666;51.498;11.966;2023-04-15T07:36:31;9.70;;;6.77;;
17955;SDS011;27666;51.498;11.966;2023-04-15T07:39:18;9.97;;;6.93;;
17955;SDS011;27666;51.498;11.966;2023-04-15T07:42:05;10.17;;;7.63;;
17955;SDS011;27666;51.498;11.966;2023-04-15T07:44:52;9.67;;;6.73;;
17955;SDS011;27666;51.498;11.966;2023-04-15T07:47:38;12.73;;;7.73;;
17955;SDS011;27666;51.498;11.966;2023-04-15T07:50:27;10.13;;;7.43;;
17955;SDS011;27666;51.498;11.966;2023-04-15T07:53:14;8.83;;;7.10;;
17955;SDS011;27666;51.498;11.966;2023-04-15T07:56:01;9.67;;;7.37;;
17955;SDS011;27666;51.498;11.966;2023-04-15T07:58:47;10.47;;;7.33;;
17955;SDS011;27666;51.498;11.966;2023-04-15T08:01:33;10.87;;;6.60;;
17955;SDS011;27666;51.498;11.966;2023-04-15T08:04:20;9.77;;;7.53;;
17955;SDS011;27666;51.498;11.966;2023-04-15T08:07:08;10.43;;;7.43;;
17955;SDS011;27666;51.498;11.966;2023-04-15T08:09:56;11.23;;;7.40;;
17955;SDS011;27666;51.498;11.966;2023-04-15T08:12:42;12.80;;;7.77;;
17955;SDS011;27666;51.498;11.966;2023-04-15T08:15:32;13.10;;;9.27;;
17955;SDS011;27666;51.498;11.966;2023-04-15T08:18:19;11.03;;;8.07;;
17955;SDS011;27666;51.498;11.966;2023-04-15T08:21:05;10.20;;;7.67;;
17955;SDS011;27666;51.498;11.966;2023-04-15T08:23:55;10.93;;;7.73;;
17955;SDS011;27666;51.498;11.966;2023-04-15T08:26:44;10.00;;;7.80;;
17955;SDS011;27666;51.498;11.966;2023-04-15T08:29:31;11.40;;;7.77;;
17955;SDS011;27666;51.498;11.966;2023-04-15T08:32:18;11.43;;;8.00;;
17955;SDS011;27666;51.498;11.966;2023-04-15T08:35:05;11.03;;;8.13;;
17955;SDS011;27666;51.498;11.966;2023-04-15T08:37:52;12.73;;;9.13;;
17955;SDS011;27666;51.498;11.966;2023-04-15T08:40:41;12.30;;;9.10;;
17955;SDS011;27666;51.498;11.966;2023-04-15T08:43:31;13.87;;;9.80;;
17955;SDS011;27666;51.498;11.966;2023-04-15T08:46:20;14.17;;;9.87;;
17955;SDS011;27666;51.498;11.966;2023-04-15T08:49:08;15.17;;;11.30;;
17955;SDS011;27666;51.498;11.966;2023-04-15T08:51:57;14.00;;;9.83;;
17955;SDS011;27666;51.498;11.966;2023-04-15T08:54:44;14.93;;;10.03;;
17955;SDS011;27666;51.498;11.966;2023-04-15T08:57:32;18.70;;;11.13;;
17955;SDS011;27666;51.498;11.966;2023-04-15T09:00:19;17.97;;;11.67;;
17955;SDS011;27666;51.498;11.966;2023-04-15T09:03:07;17.87;;;11.57;;
17955;SDS011;27666;51.498;11.966;2023-04-15T09:05:54;18.27;;;11.50;;
17955;SDS011;27666;51.498;11.966;2023-04-15T09:08:41;19.90;;;12.00;;
17955;SDS011;27666;51.498;11.966;2023-04-15T09:11:28;20.80;;;12.93;;
17955;SDS011;27666;51.498;11.966;2023-04-15T09:14:17;18.10;;;11.23;;
17955;SDS011;27666;51.498;11.966;2023-04-15T09:17:03;23.23;;;12.03;;
17955;SDS011;27666;51.498;11.966;2023-04-15T09:19:52;18.87;;;12.17;;
17955;SDS011;27666;51.498;11.966;2023-04-15T09:22:53;18.73;;;12.13;;
17955;SDS011;27666;51.498;11.966;2023-04-15T09:25:39;19.80;;;12.40;;
17955;SDS011;27666;51.498;11.966;2023-04-15T09:28:27;19.33;;;12.20;;
17955;SDS011;27666;51.498;11.966;2023-04-15T09:31:15;21.63;;;12.63;;
17955;SDS011;27666;51.498;11.966;2023-04-15T09:34:04;20.73;;;12.70;;
17955;SDS011;27666;51.498;11.966;2023-04-15T09:36:56;24.50;;;14.13;;
17955;SDS011;27666;51.498;11.966;2023-04-15T09:39:46;23.10;;;13.30;;
17955;SDS011;27666;51.498;11.966;2023-04-15T09:42:33;25.50;;;14.07;;
17955;SDS011;27666;51.498;11.966;2023-04-15T09:45:21;28.13;;;14.93;;
17955;SDS011;27666;51.498;11.966;2023-04-15T09:48:15;29.43;;;15.60;;
17955;SDS011;27666;51.498;11.966;2023-04-15T09:51:04;31.03;;;16.23;;
17955;SDS011;27666;51.498;11.966;2023-04-15T09:53:53;28.27;;;16.50;;
17955;SDS011;27666;51.498;11.966;2023-04-15T09:56:41;30.57;;;15.90;;
17955;SDS011;27666;51.498;11.966;2023-04-15T09:59:28;32.77;;;17.73;;
17955;SDS011;27666;51.498;11.966;2023-04-15T10:02:15;37.80;;;19.50;;
17955;SDS011;27666;51.498;11.966;2023-04-15T10:05:05;33.63;;;18.80;;
17955;SDS011;27666;51.498;11.966;2023-04-15T10:07:55;36.93;;;19.83;;
17955;SDS011;27666;51.498;11.966;2023-04-15T10:10:46;38.43;;;19.60;;
17955;SDS011;27666;51.498;11.966;2023-04-15T10:13:33;40.33;;;20.93;;
17955;SDS011;27666;51.498;11.966;2023-04-15T10:16:22;39.97;;;19.63;;
17955;SDS011;27666;51.498;11.966;2023-04-15T10:19:12;38.83;;;20.83;;
17955;SDS011;27666;51.498;11.966;2023-04-15T10:22:02;43.30;;;21.53;;
17955;SDS011;27666;51.498;11.966;2023-04-15T10:24:49;38.63;;;20.77;;
17955;SDS011;27666;51.498;11.966;2023-04-15T10:27:38;40.03;;;21.53;;
17955;SDS011;27666;51.498;11.966;2023-04-15T10:30:26;39.20;;;22.43;;
17955;SDS011;27666;51.498;11.966;2023-04-15T10:33:14;43.50;;;22.77;;
17955;SDS011;27666;51.498;11.966;2023-04-15T10:36:04;43.53;;;23.33;;
17955;SDS011;27666;51.498;11.966;2023-04-15T10:38:53;44.90;;;24.17;;
17955;SDS011;27666;51.498;11.966;2023-04-15T10:41:40;52.17;;;24.97;;
17955;SDS011;27666;51.498;11.966;2023-04-15T10:44:26;49.90;;;26.30;;
17955;SDS011;27666;51.498;11.966;2023-04-15T10:47:14;54.23;;;25.80;;
17955;SDS011;27666;51.498;11.966;2023-04-15T10:50:03;52.07;;;26.47;;
17955;SDS011;27666;51.498;11.966;2023-04-15T10:52:51;51.00;;;25.83;;
17955;SDS011;27666;51.498;11.966;2023-04-15T10:55:39;50.43;;;27.20;;
17955;SDS011;27666;51.498;11.966;2023-04-15T10:58:25;51.53;;;26.77;;
17955;SDS011;27666;51.498;11.966;2023-04-15T11:04:51;48.47;;;25.87;;
17955;SDS011;27666;51.498;11.966;2023-04-15T11:07:48;47.53;;;27.27;;
17955;SDS011;27666;51.498;11.966;2023-04-15T11:13:46;46.73;;;25.33;;
17955;SDS011;27666;51.498;11.966;2023-04-15T11:16:40;49.00;;;26.73;;
17955;SDS011;27666;51.498;11.966;2023-04-15T11:19:34;46.93;;;26.03;;
17955;SDS011;27666;51.498;11.966;2023-04-15T11:22:22;45.87;;;25.90;;
17955;SDS011;27666;51.498;11.966;2023-04-15T11:25:09;46.80;;;27.33;;
17955;SDS011;27666;51.498;11.966;2023-04-15T11:27:57;114.83;;;59.53;;
17955;SDS011;27666;51.498;11.966;2023-04-15T11:30:45;42.50;;;25.93;;
17955;SDS011;27666;51.498;11.966;2023-04-15T11:33:32;43.50;;;25.33;;
17955;SDS011;27666;51.498;11.966;2023-04-15T11:36:18;44.30;;;26.43;;
17955;SDS011;27666;51.498;11.966;2023-04-15T11:39:05;42.80;;;26.97;;
17955;SDS011;27666;51.498;11.966;2023-04-15T11:41:52;43.23;;;26.00;;
17955;SDS011;27666;51.498;11.966;2023-04-15T11:44:41;61.03;;;35.27;;
17955;SDS011;27666;51.498;11.966;2023-04-15T11:47:30;42.00;;;25.43;;
17955;SDS011;27666;51.498;11.966;2023-04-15T11:50:17;45.37;;;26.23;;
17955;SDS011;27666;51.498;11.966;2023-04-15T11:53:05;43.33;;;25.00;;
17955;SDS011;27666;51.498;11.966;2023-04-15T11:55:54;38.37;;;23.77;;
17955;SDS011;27666;51.498;11.966;2023-04-15T11:58:40;37.57;;;24.33;;
17955;SDS011;27666;51.498;11.966;2023-04-15T12:01:33;34.70;;;22.80;;
17955;SDS011;27666;51.498;11.966;2023-04-15T12:04:20;33.73;;;22.43;;
17955;SDS011;27666;51.498;11.966;2023-04-15T12:07:09;35.07;;;21.90;;
17955;SDS011;27666;51.498;11.966;2023-04-15T12:09:56;35.33;;;21.87;;
17955;SDS011;27666;51.498;11.966;2023-04-15T12:12:47;35.47;;;22.60;;
17955;SDS011;27666;51.498;11.966;2023-04-15T12:15:36;33.07;;;21.27;;
17955;SDS011;27666;51.498;11.966;2023-04-15T12:18:24;30.70;;;20.63;;
17955;SDS011;27666;51.498;11.966;2023-04-15T12:21:11;32.67;;;21.13;;
17955;SDS011;27666;51.498;11.966;2023-04-15T12:24:00;28.27;;;19.00;;
17955;SDS011;27666;51.498;11.966;2023-04-15T12:26:49;26.43;;;18.77;;
17955;SDS011;27666;51.498;11.966;2023-04-15T12:29:37;28.97;;;19.70;;
17955;SDS011;27666;51.498;11.966;2023-04-15T12:32:24;27.77;;;17.77;;
17955;SDS011;27666;51.498;11.966;2023-04-15T12:35:12;25.93;;;17.87;;
17955;SDS011;27666;51.498;11.966;2023-04-15T12:37:59;23.47;;;17.03;;
17955;SDS011;27666;51.498;11.966;2023-04-15T12:40:47;27.87;;;18.73;;
17955;SDS011;27666;51.498;11.966;2023-04-15T12:43:33;25.10;;;17.70;;
17955;SDS011;27666;51.498;11.966;2023-04-15T12:46:19;29.60;;;18.60;;
17955;SDS011;27666;51.498;11.966;2023-04-15T12:49:06;22.13;;;15.07;;
17955;SDS011;27666;51.498;11.966;2023-04-15T12:51:55;25.83;;;16.50;;
17955;SDS011;27666;51.498;11.966;2023-04-15T12:54:43;25.40;;;16.67;;
17955;SDS011;27666;51.498;11.966;2023-04-15T12:57:30;23.67;;;17.07;;
17955;SDS011;27666;51.498;11.966;2023-04-15T13:00:17;20.53;;;15.43;;
17955;SDS011;27666;51.498;11.966;2023-04-15T13:03:03;26.17;;;16.10;;
17955;SDS011;27666;51.498;11.966;2023-04-15T13:05:51;22.20;;;15.43;;
17955;SDS011;27666;51.498;11.966;2023-04-15T13:08:39;21.70;;;15.57;;
17955;SDS011;27666;51.498;11.966;2023-04-15T13:11:35;18.83;;;14.10;;
17955;SDS011;27666;51.498;11.966;2023-04-15T13:14:21;17.43;;;12.93;;
17955;SDS011;27666;51.498;11.966;2023-04-15T13:17:08;20.70;;;14.23;;
17955;SDS011;27666;51.498;11.966;2023-04-15T13:19:55;19.23;;;14.07;;
17955;SDS011;27666;51.498;11.966;2023-04-15T13:22:42;21.83;;;15.33;;
17955;SDS011;27666;51.498;11.966;2023-04-15T13:25:30;21.93;;;15.13;;
17955;SDS011;27666;51.498;11.966;2023-04-15T13:28:16;18.83;;;14.10;;
17955;SDS011;27666;51.498;11.966;2023-04-15T13:31:03;22.85;;;17.40;;
17955;SDS011;27666;51.498;11.966;2023-04-15T13:33:51;19.80;;;14.63;;
17955;SDS011;27666;51.498;11.966;2023-04-15T13:36:37;19.73;;;13.53;;
17955;SDS011;27666;51.498;11.966;2023-04-15T13:39:23;19.03;;;12.97;;
17955;SDS011;27666;51.498;11.966;2023-04-15T13:42:11;16.47;;;12.30;;
17955;SDS011;27666;51.498;11.966;2023-04-15T13:44:58;17.40;;;12.03;;
17955;SDS011;27666;51.498;11.966;2023-04-15T13:47:44;15.73;;;12.43;;
17955;SDS011;27666;51.498;11.966;2023-04-15T13:50:31;14.90;;;11.33;;
17955;SDS011;27666;51.498;11.966;2023-04-15T13:53:17;16.40;;;11.07;;
17955;SDS011;27666;51.498;11.966;2023-04-15T13:56:04;31.87;;;17.67;;
17955;SDS011;27666;51.498;11.966;2023-04-15T13:58:52;18.90;;;13.37;;
17955;SDS011;27666;51.498;11.966;2023-04-15T14:01:43;28.27;;;18.73;;
17955;SDS011;27666;51.498;11.966;2023-04-15T14:04:30;17.20;;;12.30;;
17955;SDS011;27666;51.498;11.966;2023-04-15T14:07:17;20.67;;;14.87;;
17955;SDS011;27666;51.498;11.966;2023-04-15T14:10:04;19.10;;;14.03;;
17955;SDS011;27666;51.498;11.966;2023-04-15T14:12:51;15.97;;;12.17;;
17955;SDS011;27666;51.498;11.966;2023-04-15T14:15:39;16.23;;;12.27;;
17955;SDS011;27666;51.498;11.966;2023-04-15T14:18:25;17.10;;;11.70;;
17955;SDS011;27666;51.498;11.966;2023-04-15T14:21:12;16.93;;;12.57;;
17955;SDS011;27666;51.498;11.966;2023-04-15T14:23:59;18.93;;;13.73;;
17955;SDS011;27666;51.498;11.966;2023-04-15T14:26:45;20.17;;;14.50;;
17955;SDS011;27666;51.498;11.966;2023-04-15T14:29:32;17.00;;;13.37;;
17955;SDS011;27666;51.498;11.966;2023-04-15T14:32:20;19.33;;;13.23;;
17955;SDS011;27666;51.498;11.966;2023-04-15T14:35:07;18.90;;;13.53;;
17955;SDS011;27666;51.498;11.966;2023-04-15T14:37:54;16.97;;;13.50;;
17955;SDS011;27666;51.498;11.966;2023-04-15T14:40:41;16.60;;;12.63;;
17955;SDS011;27666;51.498;11.966;2023-04-15T14:43:28;18.40;;;13.40;;
17955;SDS011;27666;51.498;11.966;2023-04-15T14:46:14;18.80;;;14.30;;
17955;SDS011;27666;51.498;11.966;2023-04-15T14:49:02;18.13;;;12.47;;
17955;SDS011;27666;51.498;11.966;2023-04-15T14:51:49;19.20;;;13.97;;
17955;SDS011;27666;51.498;11.966;2023-04-15T14:54:36;17.70;;;14.03;;
17955;SDS011;27666;51.498;11.966;2023-04-15T14:57:25;18.80;;;13.40;;
17955;SDS011;27666;51.498;11.966;2023-04-15T15:00:12;20.37;;;13.40;;
17955;SDS011;27666;51.498;11.966;2023-04-15T15:03:00;15.63;;;12.33;;
17955;SDS011;27666;51.498;11.966;2023-04-15T15:05:49;16.57;;;12.50;;
17955;SDS011;27666;51.498;11.966;2023-04-15T15:08:36;17.20;;;12.90;;
17955;SDS011;27666;51.498;11.966;2023-04-15T15:11:23;15.40;;;11.40;;
17955;SDS011;27666;51.498;11.966;2023-04-15T15:14:11;15.00;;;11.10;;
17955;SDS011;27666;51.498;11.966;2023-04-15T15:16:57;14.40;;;11.57;;
17955;SDS011;27666;51.498;11.966;2023-04-15T15:19:44;14.70;;;11.50;;
17955;SDS011;27666;51.498;11.966;2023-04-15T15:22:32;15.13;;;11.87;;
17955;SDS011;27666;51.498;11.966;2023-04-15T15:25:18;14.13;;;10.77;;
17955;SDS011;27666;51.498;11.966;2023-04-15T15:28:05;15.30;;;11.10;;
17955;SDS011;27666;51.498;11.966;2023-04-15T15:30:52;15.47;;;12.23;;
17955;SDS011;27666;51.498;11.966;2023-04-15T15:33:39;13.53;;;10.80;;
17955;SDS011;27666;51.498;11.966;2023-04-15T15:36:25;14.57;;;11.60;;
17955;SDS011;27666;51.498;11.966;2023-04-15T15:39:13;13.27;;;10.60;;
17955;SDS011;27666;51.498;11.966;2023-04-15T15:42:00;15.80;;;11.47;;
17955;SDS011;27666;51.498;11.966;2023-04-15T15:44:47;12.73;;;10.60;;
17955;SDS011;27666;51.498;11.966;2023-04-15T15:47:36;14.90;;;10.83;;
17955;SDS011;27666;51.498;11.966;2023-04-15T15:50:22;15.23;;;10.87;;
17955;SDS011;27666;51.498;11.966;2023-04-15T15:53:09;15.63;;;11.90;;
17955;SDS011;27666;51.498;11.966;2023-04-15T15:56:03;14.07;;;11.17;;
17955;SDS011;27666;51.498;11.966;2023-04-15T15:58:50;15.67;;;10.73;;
17955;SDS011;27666;51.498;11.966;2023-04-15T16:01:36;13.77;;;10.10;;
17955;SDS011;27666;51.498;11.966;2023-04-15T16:04:23;12.20;;;10.27;;
17955;SDS011;27666;51.498;11.966;2023-04-15T16:07:10;14.27;;;10.50;;
17955;SDS011;27666;51.498;11.966;2023-04-15T16:09:58;13.40;;;10.03;;
17955;SDS011;27666;51.498;11.966;2023-04-15T16:12:46;15.23;;;11.10;;
17955;SDS011;27666;51.498;11.966;2023-04-15T16:15:32;16.80;;;11.47;;
17955;SDS011;27666;51.498;11.966;2023-04-15T16:18:19;13.37;;;10.83;;
17955;SDS011;27666;51.498;11.966;2023-04-15T16:21:05;14.20;;;10.87;;
17955;SDS011;27666;51.498;11.966;2023-04-15T16:23:52;15.30;;;11.63;;